createdAt,value
2022-10-18T00:00:10.242Z,976.3600
2022-10-18T00:01:12.454Z,976.3800
2022-10-18T00:02:14.685Z,976.3400
2022-10-18T00:03:16.766Z,976.3400
2022-10-18T00:04:18.967Z,976.3000
2022-10-18T00:05:21.170Z,976.2400
2022-10-18T00:06:23.431Z,976.2400
2022-10-18T00:07:23.449Z,976.2400
2022-10-18T00:08:25.666Z,976.3000
2022-10-18T00:09:27.871Z,976.3400
2022-10-18T00:10:30.081Z,976.3800
2022-10-18T00:11:32.294Z,976.4200
2022-10-18T00:12:34.497Z,976.4400
2022-10-18T00:13:36.706Z,976.4200
2022-10-18T00:14:38.924Z,976.4400
2022-10-18T00:15:41.180Z,976.4400
2022-10-18T00:16:41.324Z,976.4400
2022-10-18T00:17:43.558Z,976.4200
2022-10-18T00:18:45.782Z,976.4200
2022-10-18T00:19:47.995Z,976.4200
2022-10-18T00:20:50.206Z,976.4200
2022-10-18T00:21:50.294Z,976.4200
2022-10-18T00:22:52.450Z,976.4200
2022-10-18T00:23:54.647Z,976.4400
2022-10-18T00:24:56.852Z,976.4600
2022-10-18T00:25:59.065Z,976.4800
2022-10-18T00:27:01.280Z,976.5000
2022-10-18T00:28:03.416Z,976.5200
2022-10-18T00:29:05.631Z,976.5400
2022-10-18T00:30:07.830Z,976.5500
2022-10-18T00:31:10.098Z,976.5400
2022-10-18T00:32:12.380Z,976.5200
2022-10-18T00:33:14.617Z,976.5000
2022-10-18T00:34:16.878Z,976.4800
2022-10-18T00:35:19.139Z,976.4600
2022-10-18T00:36:21.400Z,976.4600
2022-10-18T00:37:23.693Z,976.4600
2022-10-18T00:38:25.905Z,976.4600
2022-10-18T00:39:26.013Z,976.4800
2022-10-18T00:40:28.270Z,976.4600
2022-10-18T00:41:30.435Z,976.4600
2022-10-18T00:42:32.857Z,976.4600
2022-10-18T00:43:34.766Z,976.4200
2022-10-18T00:44:36.983Z,976.4200
2022-10-18T00:45:39.165Z,976.4200
2022-10-18T00:46:41.387Z,976.4400
2022-10-18T00:47:43.642Z,976.4200
2022-10-18T00:48:45.911Z,976.4600
2022-10-18T00:49:45.904Z,976.4600
2022-10-18T00:50:48.158Z,976.4400
2022-10-18T00:51:50.424Z,976.4600
2022-10-18T00:52:52.718Z,976.4600
2022-10-18T00:53:54.938Z,976.4800
2022-10-18T00:54:57.180Z,976.4600
2022-10-18T00:55:59.370Z,976.5000
2022-10-18T00:57:01.582Z,976.4800
2022-10-18T00:58:03.835Z,976.4400
2022-10-18T00:59:06.034Z,976.4600
2022-10-18T01:00:08.298Z,976.4400
2022-10-18T01:01:10.551Z,976.4400
2022-10-18T01:02:12.830Z,976.4400
2022-10-18T01:03:15.033Z,976.4000
2022-10-18T01:04:17.221Z,976.4200
2022-10-18T01:05:19.448Z,976.4200
2022-10-18T01:06:21.661Z,976.4600
2022-10-18T01:07:23.914Z,976.4600
2022-10-18T01:08:26.171Z,976.4600
2022-10-18T01:09:28.412Z,976.4600
2022-10-18T01:10:30.640Z,976.4800
2022-10-18T01:11:32.901Z,976.4400
2022-10-18T01:12:35.150Z,976.4200
2022-10-18T01:13:37.427Z,976.4000
2022-10-18T01:14:39.629Z,976.4200
2022-10-18T01:15:41.922Z,976.4600
2022-10-18T01:16:44.146Z,976.4800
2022-10-18T01:17:46.409Z,976.4800
2022-10-18T01:18:46.576Z,976.5000
2022-10-18T01:19:48.806Z,976.4800
2022-10-18T01:20:51.070Z,976.4400
2022-10-18T01:21:53.276Z,976.4600
2022-10-18T01:22:55.443Z,976.4400
2022-10-18T01:23:55.486Z,976.4200
2022-10-18T01:24:57.739Z,976.4200
2022-10-18T01:25:59.842Z,976.4200
2022-10-18T01:27:02.035Z,976.4000
2022-10-18T01:28:04.224Z,976.3800
2022-10-18T01:29:06.572Z,976.3200
2022-10-18T01:30:08.640Z,976.3200
2022-10-18T01:31:10.925Z,976.3200
2022-10-18T01:32:13.159Z,976.3000
2022-10-18T01:33:15.400Z,976.3000
2022-10-18T01:34:17.684Z,976.3000
2022-10-18T01:35:19.927Z,976.3200
2022-10-18T01:36:22.194Z,976.3400
2022-10-18T01:37:22.300Z,976.3800
2022-10-18T01:38:24.568Z,976.3200
2022-10-18T01:39:26.835Z,976.3200
2022-10-18T01:40:29.021Z,976.3400
2022-10-18T01:42:48.494Z,976.3400
2022-10-18T01:43:50.624Z,976.3000
2022-10-18T01:44:52.811Z,976.2200
2022-10-18T01:45:54.941Z,976.2800
2022-10-18T01:46:57.157Z,976.3000
2022-10-18T01:47:59.336Z,976.2600
2022-10-18T01:49:01.544Z,976.2000
2022-10-18T01:50:03.751Z,976.2000
2022-10-18T01:51:05.864Z,976.2400
2022-10-18T01:53:11.221Z,976.2600
2022-10-18T01:54:12.398Z,976.2200
2022-10-18T01:55:14.599Z,976.2200
2022-10-18T01:56:16.768Z,976.3000
2022-10-18T01:57:16.810Z,976.3800
2022-10-18T01:58:19.017Z,976.4400
2022-10-18T01:59:21.194Z,976.4200
2022-10-18T02:00:23.404Z,976.3800
2022-10-18T02:01:25.512Z,976.3800
2022-10-18T02:02:27.689Z,976.3800
2022-10-18T02:03:29.857Z,976.3800
2022-10-18T02:04:32.052Z,976.4400
2022-10-18T02:05:34.296Z,976.4000
2022-10-18T02:06:36.439Z,976.3400
2022-10-18T02:07:38.623Z,976.3400
2022-10-18T02:08:40.822Z,976.3800
2022-10-18T02:09:43.023Z,976.3800
2022-10-18T02:10:45.246Z,976.3600
2022-10-18T02:11:47.416Z,976.3400
2022-10-18T02:12:49.613Z,976.3400
2022-10-18T02:13:51.822Z,976.3600
2022-10-18T02:14:54.030Z,976.3600
2022-10-18T02:15:56.208Z,976.3600
2022-10-18T02:16:56.155Z,976.3600
2022-10-18T02:17:58.289Z,976.3800
2022-10-18T02:19:00.362Z,976.4000
2022-10-18T02:20:02.413Z,976.4000
2022-10-18T02:21:04.563Z,976.3600
2022-10-18T02:22:06.643Z,976.3800
2022-10-18T02:23:08.787Z,976.3000
2022-10-18T02:24:10.966Z,976.3000
2022-10-18T02:25:13.168Z,976.3200
2022-10-18T02:26:15.396Z,976.2600
2022-10-18T02:27:17.577Z,976.2200
2022-10-18T02:28:19.833Z,976.2000
2022-10-18T02:29:21.973Z,976.2000
2022-10-18T02:30:24.173Z,976.2200
2022-10-18T02:31:26.392Z,976.1800
2022-10-18T02:32:28.902Z,976.2200
2022-10-18T02:33:30.820Z,976.2400
2022-10-18T02:34:30.856Z,976.2400
2022-10-18T02:35:33.047Z,976.2600
2022-10-18T02:36:35.271Z,976.2600
2022-10-18T02:37:37.425Z,976.2400
2022-10-18T02:38:39.582Z,976.2400
2022-10-18T02:39:41.758Z,976.2400
2022-10-18T02:40:43.957Z,976.2600
2022-10-18T02:41:46.136Z,976.2600
2022-10-18T02:42:48.298Z,976.2800
2022-10-18T02:43:50.482Z,976.2800
2022-10-18T02:44:52.691Z,976.3000
2022-10-18T02:45:54.898Z,976.3200
2022-10-18T02:46:57.171Z,976.3000
2022-10-18T02:47:59.332Z,976.3200
2022-10-18T02:49:01.569Z,976.3200
2022-10-18T02:50:03.830Z,976.3200
2022-10-18T02:51:06.056Z,976.3200
2022-10-18T02:52:06.136Z,976.3000
2022-10-18T02:53:08.317Z,976.3400
2022-10-18T02:54:10.526Z,976.3600
2022-10-18T02:55:12.724Z,976.3600
2022-10-18T02:56:14.909Z,976.3800
2022-10-18T02:57:17.141Z,976.3600
2022-10-18T02:58:19.306Z,976.3400
2022-10-18T02:59:21.555Z,976.3400
2022-10-18T03:00:23.753Z,976.3400
2022-10-18T03:01:26.063Z,976.3200
2022-10-18T03:02:28.228Z,976.3200
2022-10-18T03:03:30.435Z,976.3200
2022-10-18T03:04:32.691Z,976.3200
2022-10-18T03:05:34.853Z,976.2800
2022-10-18T03:06:37.057Z,976.2800
2022-10-18T03:07:37.157Z,976.3000
2022-10-18T03:08:39.314Z,976.3600
2022-10-18T03:09:41.516Z,976.3400
2022-10-18T03:10:43.730Z,976.3400
2022-10-18T03:11:45.931Z,976.3400
2022-10-18T03:12:48.138Z,976.3600
2022-10-18T03:13:50.335Z,976.4000
2022-10-18T03:14:52.561Z,976.3800
2022-10-18T03:15:54.817Z,976.3600
2022-10-18T03:16:57.076Z,976.3600
2022-10-18T03:17:59.288Z,976.3600
2022-10-18T03:19:01.517Z,976.3800
2022-10-18T03:20:03.767Z,976.3800
2022-10-18T03:21:06.008Z,976.3800
2022-10-18T03:22:06.133Z,976.3600
2022-10-18T03:23:08.454Z,976.4000
2022-10-18T03:24:10.683Z,976.4000
2022-10-18T03:25:12.966Z,976.4000
2022-10-18T03:26:15.229Z,976.4000
2022-10-18T03:27:17.459Z,976.3800
2022-10-18T03:28:19.763Z,976.4200
2022-10-18T03:29:19.835Z,976.4400
2022-10-18T03:30:22.110Z,976.4200
2022-10-18T03:31:24.432Z,976.4200
2022-10-18T03:32:26.644Z,976.4400
2022-10-18T03:33:28.920Z,976.4400
2022-10-18T03:34:31.156Z,976.4400
2022-10-18T03:35:33.437Z,976.4800
2022-10-18T03:36:35.676Z,976.5000
2022-10-18T03:37:37.926Z,976.5200
2022-10-18T03:38:38.054Z,976.5500
2022-10-18T03:39:40.277Z,976.5400
2022-10-18T03:40:42.470Z,976.5200
2022-10-18T03:41:44.723Z,976.5200
2022-10-18T03:42:46.978Z,976.5000
2022-10-18T03:43:49.267Z,976.4600
2022-10-18T03:44:51.513Z,976.4600
2022-10-18T03:45:53.766Z,976.4600
2022-10-18T03:46:56.030Z,976.4600
2022-10-18T03:47:56.167Z,976.4800
2022-10-18T03:48:58.448Z,976.4600
2022-10-18T03:50:00.621Z,976.4600
2022-10-18T03:51:02.846Z,976.5200
2022-10-18T03:52:04.990Z,976.5000
2022-10-18T03:53:07.201Z,976.5000
2022-10-18T03:54:09.454Z,976.5000
2022-10-18T03:55:11.609Z,976.5200
2022-10-18T03:56:13.791Z,976.5200
2022-10-18T03:57:16.027Z,976.5400
2022-10-18T03:58:17.099Z,976.5500
2022-10-18T03:59:19.314Z,976.5400
2022-10-18T04:00:21.490Z,976.5900
2022-10-18T04:01:23.789Z,976.6700
2022-10-18T04:02:26.020Z,976.6700
2022-10-18T04:03:28.205Z,976.6700
2022-10-18T04:04:30.470Z,976.6900
2022-10-18T04:05:32.651Z,976.7100
2022-10-18T04:06:34.885Z,976.6900
2022-10-18T04:08:39.247Z,976.6900
2022-10-18T04:09:41.546Z,976.6700
2022-10-18T04:10:41.608Z,976.7100
2022-10-18T04:11:43.846Z,976.6900
2022-10-18T04:12:46.130Z,976.6700
2022-10-18T04:13:48.398Z,976.6500
2022-10-18T04:14:48.547Z,976.6300
2022-10-18T04:15:50.802Z,976.6300
2022-10-18T04:16:53.087Z,976.6500
2022-10-18T04:17:55.344Z,976.6700
2022-10-18T04:18:55.470Z,976.6900
2022-10-18T04:19:57.787Z,976.7300
2022-10-18T04:21:00.042Z,976.7500
2022-10-18T04:22:02.346Z,976.7300
2022-10-18T04:23:02.450Z,976.7500
2022-10-18T04:24:04.688Z,976.7500
2022-10-18T04:25:06.987Z,976.7100
2022-10-18T04:26:09.198Z,976.7300
2022-10-18T04:27:11.473Z,976.7300
2022-10-18T04:28:13.732Z,976.6900
2022-10-18T04:29:15.970Z,976.6900
2022-10-18T04:30:18.244Z,976.6700
2022-10-18T04:31:20.448Z,976.6700
2022-10-18T04:32:22.652Z,976.6500
2022-10-18T04:33:24.894Z,976.6500
2022-10-18T04:34:27.143Z,976.6100
2022-10-18T04:35:27.297Z,976.6500
2022-10-18T04:36:29.544Z,976.6300
2022-10-18T04:37:31.996Z,976.6300
2022-10-18T04:38:33.945Z,976.6300
2022-10-18T04:39:36.110Z,976.6100
2022-10-18T04:40:38.349Z,976.6300
2022-10-18T04:41:40.545Z,976.6300
2022-10-18T04:42:42.850Z,976.6300
2022-10-18T04:44:47.269Z,976.6300
2022-10-18T04:45:49.520Z,976.6300
2022-10-18T04:46:51.736Z,976.6500
2022-10-18T04:47:53.921Z,976.6100
2022-10-18T04:48:56.128Z,976.6300
2022-10-18T04:49:58.363Z,976.6500
2022-10-18T04:51:00.649Z,976.6500
2022-10-18T04:52:02.831Z,976.6500
2022-10-18T04:53:05.070Z,976.6700
2022-10-18T04:54:07.270Z,976.6700
2022-10-18T04:55:09.505Z,976.6900
2022-10-18T04:56:11.769Z,976.7100
2022-10-18T04:57:13.975Z,976.7300
2022-10-18T04:58:14.067Z,976.7700
2022-10-18T04:59:16.292Z,976.8100
2022-10-18T05:00:18.526Z,976.8300
2022-10-18T05:01:21.231Z,976.8700
2022-10-18T05:02:23.009Z,976.8500
2022-10-18T05:03:25.224Z,976.8500
2022-10-18T05:04:27.464Z,976.8500
2022-10-18T05:05:49.619Z,976.8300
2022-10-18T05:06:31.932Z,976.8500
2022-10-18T05:07:34.121Z,976.8300
2022-10-18T05:08:36.319Z,976.8700
2022-10-18T05:09:38.495Z,976.8900
2022-10-18T05:10:40.695Z,976.9100
2022-10-18T05:11:42.928Z,976.9100
2022-10-18T05:12:45.079Z,976.8900
2022-10-18T05:13:50.055Z,976.8700
2022-10-18T05:14:49.371Z,976.8700
2022-10-18T05:15:51.540Z,976.8700
2022-10-18T05:16:53.812Z,976.9100
2022-10-18T05:17:55.958Z,976.8900
2022-10-18T05:18:58.170Z,976.8900
2022-10-18T05:20:00.524Z,976.8900
2022-10-18T05:21:02.607Z,976.8700
2022-10-18T05:22:02.712Z,976.9100
2022-10-18T05:23:04.916Z,976.8700
2022-10-18T05:24:07.144Z,976.8700
2022-10-18T05:25:09.363Z,976.8700
2022-10-18T05:26:11.591Z,976.9100
2022-10-18T05:27:11.706Z,976.9500
2022-10-18T05:28:38.192Z,976.8900
2022-10-18T05:29:16.118Z,976.8900
2022-10-18T05:30:18.239Z,976.8900
2022-10-18T05:31:20.492Z,976.8700
2022-10-18T05:32:20.622Z,976.8500
2022-10-18T05:33:22.825Z,976.8100
2022-10-18T05:34:25.075Z,976.7900
2022-10-18T05:35:27.302Z,976.8100
2022-10-18T05:36:29.483Z,976.8300
2022-10-18T05:37:29.606Z,976.8300
2022-10-18T05:38:31.951Z,976.8700
2022-10-18T05:39:34.067Z,976.8700
2022-10-18T05:40:36.283Z,976.8300
2022-10-18T05:41:38.504Z,976.8100
2022-10-18T05:42:40.744Z,976.8700
2022-10-18T05:43:42.911Z,976.8500
2022-10-18T05:44:45.147Z,976.8700
2022-10-18T05:45:47.370Z,976.8500
2022-10-18T05:46:47.444Z,976.8500
2022-10-18T05:47:49.727Z,976.8100
2022-10-18T05:48:51.956Z,976.8100
2022-10-18T05:49:54.209Z,976.8100
2022-10-18T05:50:54.313Z,976.7900
2022-10-18T05:51:56.566Z,976.7900
2022-10-18T05:53:06.939Z,976.7700
2022-10-18T05:54:01.061Z,976.7700
2022-10-18T05:55:03.323Z,976.7700
2022-10-18T05:56:05.552Z,976.7700
2022-10-18T05:57:07.791Z,976.7700
2022-10-18T05:58:10.058Z,976.7700
2022-10-18T05:59:12.449Z,976.7700
2022-10-18T06:00:14.437Z,976.7700
2022-10-18T06:01:16.668Z,976.7500
2022-10-18T06:02:18.971Z,976.7900
2022-10-18T06:03:21.245Z,976.7700
2022-10-18T06:04:23.479Z,976.7700
2022-10-18T06:05:25.807Z,976.7700
2022-10-18T06:06:27.988Z,976.7700
2022-10-18T06:07:28.105Z,976.7500
2022-10-18T06:08:30.403Z,976.7300
2022-10-18T06:09:32.615Z,976.7300
2022-10-18T06:10:34.873Z,976.7500
2022-10-18T06:11:37.129Z,976.7300
2022-10-18T06:12:39.379Z,976.7700
2022-10-18T06:13:41.617Z,976.7300
2022-10-18T06:14:43.792Z,976.7500
2022-10-18T06:15:46.014Z,976.7500
2022-10-18T06:16:48.223Z,976.7300
2022-10-18T06:17:50.445Z,976.6900
2022-10-18T06:18:52.733Z,976.6900
2022-10-18T06:19:54.949Z,976.6700
2022-10-18T06:20:57.177Z,976.6300
2022-10-18T06:21:59.385Z,976.6300
2022-10-18T06:23:01.643Z,976.6300
2022-10-18T06:24:03.885Z,976.6500
2022-10-18T06:25:03.953Z,976.6500
2022-10-18T06:26:06.219Z,976.6900
2022-10-18T06:27:08.449Z,976.7300
2022-10-18T06:28:12.266Z,976.7500
2022-10-18T06:29:13.058Z,976.7900
2022-10-18T06:30:15.173Z,976.8300
2022-10-18T06:31:17.417Z,976.8900
2022-10-18T06:32:19.662Z,976.9100
2022-10-18T06:33:21.901Z,976.9500
2022-10-18T06:34:24.172Z,976.9500
2022-10-18T06:35:26.376Z,976.9300
2022-10-18T06:36:28.574Z,976.9100
2022-10-18T06:37:31.228Z,976.9300
2022-10-18T06:38:33.050Z,976.9100
2022-10-18T06:39:35.328Z,976.9700
2022-10-18T06:40:37.498Z,977.0100
2022-10-18T06:41:39.724Z,977.0600
2022-10-18T06:42:42.462Z,977.0600
2022-10-18T06:43:44.064Z,977.1000
2022-10-18T06:44:46.343Z,977.1000
2022-10-18T06:45:48.511Z,977.1000
2022-10-18T06:46:50.738Z,977.1400
2022-10-18T06:47:52.949Z,977.1400
2022-10-18T06:48:55.151Z,977.1400
2022-10-18T06:49:57.394Z,977.1800
2022-10-18T06:50:59.555Z,977.1800
2022-10-18T06:51:59.608Z,977.1800
2022-10-18T06:53:01.809Z,977.2000
2022-10-18T06:54:17.352Z,977.2200
2022-10-18T06:55:09.144Z,977.2200
2022-10-18T06:56:08.392Z,977.2400
2022-10-18T06:57:10.585Z,977.2200
2022-10-18T06:58:12.784Z,977.3200
2022-10-18T06:59:15.006Z,977.3200
2022-10-18T07:00:17.255Z,977.3200
2022-10-18T07:01:19.503Z,977.3200
2022-10-18T07:02:19.435Z,977.3200
2022-10-18T07:03:21.635Z,977.2400
2022-10-18T07:04:23.845Z,977.2200
2022-10-18T07:05:26.124Z,977.2000
2022-10-18T07:06:28.282Z,977.1800
2022-10-18T07:07:28.534Z,977.1400
2022-10-18T07:08:30.671Z,977.1400
2022-10-18T07:09:32.842Z,977.0800
2022-10-18T07:10:35.101Z,977.1000
2022-10-18T07:11:37.269Z,977.1000
2022-10-18T07:12:37.422Z,977.1200
2022-10-18T07:13:39.691Z,977.1400
2022-10-18T07:14:41.975Z,977.1800
2022-10-18T07:15:44.328Z,977.2000
2022-10-18T07:16:46.558Z,977.2000
2022-10-18T07:17:48.804Z,977.2200
2022-10-18T07:18:51.068Z,977.2000
2022-10-18T07:19:53.321Z,977.2200
2022-10-18T07:20:55.615Z,977.2000
2022-10-18T07:21:57.844Z,977.2400
2022-10-18T07:23:00.114Z,977.2200
2022-10-18T07:24:00.223Z,977.2200
2022-10-18T07:25:02.486Z,977.2200
2022-10-18T07:26:04.737Z,977.2000
2022-10-18T07:27:06.943Z,977.2400
2022-10-18T07:28:09.215Z,977.2000
2022-10-18T07:29:11.472Z,977.1800
2022-10-18T07:30:13.658Z,977.2000
2022-10-18T07:31:15.959Z,977.2000
2022-10-18T07:32:18.145Z,977.2000
2022-10-18T07:33:20.381Z,977.2000
2022-10-18T07:34:22.615Z,977.1800
2022-10-18T07:35:24.841Z,977.2000
2022-10-18T07:36:27.109Z,977.2200
2022-10-18T07:37:30.206Z,977.2400
2022-10-18T07:38:31.526Z,977.2400
2022-10-18T07:39:33.761Z,977.3200
2022-10-18T07:40:35.930Z,977.3200
2022-10-18T07:41:35.972Z,977.2400
2022-10-18T07:42:38.188Z,977.2200
2022-10-18T07:43:40.457Z,977.2200
2022-10-18T07:44:42.678Z,977.3200
2022-10-18T07:45:44.912Z,977.2200
2022-10-18T07:46:47.182Z,977.2200
2022-10-18T07:47:49.394Z,977.3400
2022-10-18T07:48:51.640Z,977.3200
2022-10-18T07:49:53.884Z,977.2400
2022-10-18T07:50:56.198Z,977.2400
2022-10-18T07:51:58.488Z,977.2200
2022-10-18T07:53:00.750Z,977.3400
2022-10-18T07:54:00.928Z,977.3200
2022-10-18T07:55:03.219Z,977.3400
2022-10-18T07:56:08.573Z,977.3600
2022-10-18T07:57:07.879Z,977.3600
2022-10-18T07:58:10.201Z,977.3600
2022-10-18T07:59:12.493Z,977.3400
2022-10-18T08:00:14.734Z,977.3200
2022-10-18T08:01:17.152Z,977.3200
2022-10-18T08:02:19.377Z,977.4000
2022-10-18T08:03:21.664Z,977.4000
2022-10-18T08:04:23.931Z,977.4200
2022-10-18T08:05:26.226Z,977.3800
2022-10-18T08:06:28.544Z,977.4000
2022-10-18T08:07:28.985Z,977.4200
2022-10-18T08:08:31.046Z,977.4600
2022-10-18T08:09:33.370Z,977.4400
2022-10-18T08:10:35.705Z,977.4000
2022-10-18T08:11:38.026Z,977.4200
2022-10-18T08:12:40.400Z,977.4000
2022-10-18T08:13:40.519Z,977.3600
2022-10-18T08:14:42.861Z,977.3800
2022-10-18T08:15:45.166Z,977.3800
2022-10-18T08:16:47.489Z,977.3800
2022-10-18T08:17:49.839Z,977.4000
2022-10-18T08:18:52.085Z,977.3800
2022-10-18T08:20:11.668Z,977.4000
2022-10-18T08:20:54.466Z,977.3800
2022-10-18T08:21:56.766Z,977.3800
2022-10-18T08:23:00.358Z,977.3800
2022-10-18T08:24:01.359Z,977.3400
2022-10-18T08:25:01.495Z,977.3400
2022-10-18T08:26:03.793Z,977.3800
2022-10-18T08:27:06.050Z,977.3400
2022-10-18T08:28:08.353Z,977.3600
2022-10-18T08:29:22.994Z,977.2400
2022-10-18T08:30:10.771Z,977.3200
2022-10-18T08:31:13.030Z,977.3200
2022-10-18T08:32:15.350Z,977.3400
2022-10-18T08:33:17.625Z,977.2400
2022-10-18T08:34:20.134Z,977.3200
2022-10-18T08:35:22.195Z,977.3400
2022-10-18T08:36:22.352Z,977.3200
2022-10-18T08:37:24.600Z,977.3600
2022-10-18T08:38:26.934Z,977.3400
2022-10-18T08:39:29.152Z,977.3600
2022-10-18T08:40:29.303Z,977.3600
2022-10-18T08:41:31.543Z,977.3600
2022-10-18T08:42:34.411Z,977.4000
2022-10-18T08:44:36.247Z,977.3800
2022-10-18T08:45:42.273Z,977.4200
2022-10-18T08:46:40.838Z,977.4000
2022-10-18T08:47:43.138Z,977.4000
2022-10-18T08:48:45.454Z,977.3600
2022-10-18T08:49:47.733Z,977.3600
2022-10-18T08:50:49.951Z,977.3400
2022-10-18T08:51:50.049Z,977.3800
2022-10-18T08:52:52.331Z,977.3600
2022-10-18T08:53:54.634Z,977.3800
2022-10-18T08:54:56.911Z,977.3600
2022-10-18T08:55:57.073Z,977.2200
2022-10-18T08:56:59.377Z,977.2400
2022-10-18T08:59:01.899Z,977.2200
2022-10-18T09:00:04.059Z,977.3200
2022-10-18T09:01:06.337Z,977.3400
2022-10-18T09:02:06.394Z,977.3400
2022-10-18T09:03:08.657Z,977.3200
2022-10-18T09:04:10.890Z,977.2000
2022-10-18T09:05:13.099Z,977.1800
2022-10-18T09:06:17.666Z,977.2200
2022-10-18T09:07:17.572Z,977.2400
2022-10-18T09:08:19.804Z,977.2400
2022-10-18T09:09:22.068Z,977.2400
2022-10-18T09:10:24.227Z,977.2000
2022-10-18T09:11:26.478Z,977.1800
2022-10-18T09:12:28.910Z,977.1400
2022-10-18T09:13:30.801Z,977.1200
2022-10-18T09:14:33.090Z,977.0800
2022-10-18T09:15:33.208Z,977.0600
2022-10-18T09:16:35.465Z,977.0400
2022-10-18T09:17:37.664Z,977.0200
2022-10-18T09:18:39.900Z,977.0200
2022-10-18T09:19:42.104Z,977.0100
2022-10-18T09:20:44.292Z,977.0200
2022-10-18T09:21:46.509Z,976.9900
2022-10-18T09:22:48.724Z,977.0400
2022-10-18T09:23:50.935Z,977.0800
2022-10-18T09:24:53.215Z,977.0800
2022-10-18T09:25:55.334Z,977.0600
2022-10-18T09:26:57.541Z,977.0400
2022-10-18T09:27:59.719Z,977.0200
2022-10-18T09:29:02.074Z,977.0100
2022-10-18T09:30:04.154Z,977.0100
2022-10-18T09:31:06.281Z,977.0200
2022-10-18T09:32:08.496Z,977.0600
2022-10-18T09:33:09.498Z,977.0200
2022-10-18T09:34:13.852Z,977.0200
2022-10-18T09:35:15.076Z,977.0600
2022-10-18T09:36:17.181Z,977.0600
2022-10-18T09:37:17.231Z,977.1000
2022-10-18T09:38:19.521Z,977.0400
2022-10-18T09:39:21.643Z,977.0200
2022-10-18T09:40:23.882Z,977.0400
2022-10-18T09:41:26.041Z,977.0200
2022-10-18T09:42:28.259Z,977.0100
2022-10-18T09:43:30.438Z,976.9500
2022-10-18T09:44:32.649Z,976.9700
2022-10-18T09:45:34.897Z,977.0100
2022-10-18T09:46:37.043Z,977.0100
2022-10-18T09:47:39.249Z,977.0200
2022-10-18T09:48:41.441Z,976.9900
2022-10-18T09:49:43.647Z,977.0200
2022-10-18T09:50:45.823Z,977.0100
2022-10-18T09:51:47.976Z,976.9900
2022-10-18T09:52:50.190Z,977.0100
2022-10-18T09:53:52.354Z,977.0200
2022-10-18T09:54:54.547Z,976.9300
2022-10-18T09:55:56.785Z,977.0100
2022-10-18T09:56:58.953Z,976.9700
2022-10-18T09:57:59.023Z,976.9500
2022-10-18T09:59:01.202Z,976.9300
2022-10-18T10:00:03.403Z,976.9300
2022-10-18T10:01:05.597Z,976.9700
2022-10-18T10:02:07.763Z,976.9300
2022-10-18T10:03:09.874Z,976.9300
2022-10-18T10:04:11.996Z,976.9500
2022-10-18T10:05:14.201Z,976.9700
2022-10-18T10:06:16.420Z,976.9300
2022-10-18T10:07:18.592Z,976.9300
2022-10-18T10:08:20.811Z,976.9500
2022-10-18T10:09:22.998Z,976.9300
2022-10-18T10:10:25.214Z,977.0100
2022-10-18T10:11:27.450Z,976.9500
2022-10-18T10:12:29.584Z,976.9100
2022-10-18T10:13:31.767Z,976.9500
2022-10-18T10:14:33.969Z,976.9900
2022-10-18T10:15:38.172Z,976.9900
2022-10-18T10:16:38.409Z,976.9300
2022-10-18T10:17:40.574Z,976.9700
2022-10-18T10:18:42.798Z,976.9700
2022-10-18T10:19:42.838Z,976.9900
2022-10-18T10:20:45.046Z,976.9300
2022-10-18T10:21:47.270Z,976.9700
2022-10-18T10:22:49.451Z,976.9900
2022-10-18T10:23:51.639Z,977.0400
2022-10-18T10:24:53.844Z,976.9500
2022-10-18T10:25:56.036Z,976.9500
2022-10-18T10:26:58.204Z,976.9300
2022-10-18T10:28:00.344Z,976.8900
2022-10-18T10:29:02.640Z,976.8900
2022-10-18T10:30:07.328Z,976.8900
2022-10-18T10:31:07.111Z,976.8900
2022-10-18T10:32:09.374Z,976.8900
2022-10-18T10:33:11.579Z,976.8900
2022-10-18T10:34:13.829Z,976.8900
2022-10-18T10:35:22.747Z,976.8700
2022-10-18T10:36:16.061Z,976.8900
2022-10-18T10:37:18.334Z,976.8700
2022-10-18T10:38:20.512Z,976.8700
2022-10-18T10:39:22.738Z,976.8700
2022-10-18T10:40:27.795Z,976.8700
2022-10-18T10:41:25.107Z,976.9100
2022-10-18T10:42:27.264Z,976.8700
2022-10-18T10:43:43.019Z,976.9300
2022-10-18T10:44:29.505Z,976.9100
2022-10-18T10:45:31.734Z,976.9300
2022-10-18T10:46:33.966Z,976.8700
2022-10-18T10:47:36.251Z,976.8900
2022-10-18T10:48:38.500Z,976.8500
2022-10-18T10:49:41.440Z,976.8500
2022-10-18T10:50:42.928Z,976.8500
2022-10-18T10:51:45.268Z,976.8900
2022-10-18T10:52:47.424Z,976.8300
2022-10-18T10:53:49.649Z,976.8300
2022-10-18T10:54:53.882Z,976.7900
2022-10-18T10:55:54.059Z,976.7900
2022-10-18T10:56:54.146Z,976.8100
2022-10-18T10:57:56.424Z,976.8100
2022-10-18T10:58:58.642Z,976.7500
2022-10-18T11:00:00.778Z,976.7900
2022-10-18T11:01:03.051Z,976.7300
2022-10-18T11:02:05.170Z,976.7300
2022-10-18T11:03:27.291Z,976.7500
2022-10-18T11:04:09.676Z,976.7500
2022-10-18T11:05:11.761Z,976.7500
2022-10-18T11:06:13.908Z,976.7300
2022-10-18T11:07:16.056Z,976.7700
2022-10-18T11:08:21.744Z,976.7900
2022-10-18T11:09:20.466Z,976.7500
2022-10-18T11:10:22.658Z,976.7300
2022-10-18T11:11:24.844Z,976.6700
2022-10-18T11:12:27.091Z,976.6300
2022-10-18T11:13:29.358Z,976.6700
2022-10-18T11:14:31.597Z,976.6900
2022-10-18T11:15:31.681Z,976.6500
2022-10-18T11:16:33.945Z,976.6300
2022-10-18T11:17:36.212Z,976.5900
2022-10-18T11:18:38.507Z,976.6100
2022-10-18T11:19:40.779Z,976.6300
2022-10-18T11:20:43.020Z,976.5700
2022-10-18T11:21:45.232Z,976.6100
2022-10-18T11:22:47.439Z,976.5900
2022-10-18T11:23:49.666Z,976.5700
2022-10-18T11:24:49.773Z,976.5200
2022-10-18T11:25:52.027Z,976.5400
2022-10-18T11:26:54.365Z,976.5200
2022-10-18T11:27:56.541Z,976.5000
2022-10-18T11:28:58.905Z,976.4600
2022-10-18T11:30:01.052Z,976.5000
2022-10-18T11:31:03.320Z,976.5000
2022-10-18T11:32:05.591Z,976.4600
2022-10-18T11:33:05.721Z,976.4800
2022-10-18T11:34:09.548Z,976.4200
2022-10-18T11:35:10.256Z,976.4200
2022-10-18T11:36:12.582Z,976.4200
2022-10-18T11:37:27.742Z,976.3800
2022-10-18T11:38:17.037Z,976.4200
2022-10-18T11:39:19.320Z,976.3800
2022-10-18T11:40:21.562Z,976.3400
2022-10-18T11:41:23.825Z,976.3600
2022-10-18T11:42:23.932Z,976.3200
2022-10-18T11:43:30.228Z,976.3000
2022-10-18T11:44:28.488Z,976.2800
2022-10-18T11:46:32.878Z,976.3000
2022-10-18T11:47:35.395Z,976.2400
2022-10-18T11:48:37.359Z,976.2600
2022-10-18T11:49:39.623Z,976.2400
2022-10-18T11:50:41.818Z,976.2200
2022-10-18T11:52:06.632Z,976.1800
2022-10-18T11:52:44.170Z,976.1800
2022-10-18T11:53:51.634Z,976.1800
2022-10-18T11:56:05.880Z,976.1400
2022-10-18T11:57:07.992Z,976.1200
2022-10-18T11:58:10.196Z,976.1400
2022-10-18T11:59:12.401Z,976.1600
2022-10-18T12:00:12.454Z,976.0800
2022-10-18T12:01:14.701Z,976.1800
2022-10-18T12:02:16.918Z,976.1200
2022-10-18T12:03:19.059Z,976.0700
2022-10-18T12:04:21.255Z,976.0800
2022-10-18T12:05:24.515Z,976.0800
2022-10-18T12:06:25.675Z,976.1200
2022-10-18T12:07:32.343Z,976.0800
2022-10-18T12:08:30.043Z,976.0800
2022-10-18T12:09:32.239Z,976.0700
2022-10-18T12:10:44.423Z,976.1000
2022-10-18T12:11:36.631Z,976.0800
2022-10-18T12:12:38.775Z,976.0700
2022-10-18T12:13:40.959Z,976.0700
2022-10-18T12:14:43.144Z,976.0800
2022-10-18T12:15:45.341Z,976.0700
2022-10-18T12:16:51.356Z,976.0800